Skip Navigation LinksHome page > Weather > Current weather Skip Navigation Links

Current Weather

Miami Intl, Miami

For information only: do not use for flight planning or navigation.
Latest weather
Observation time Sunday, May 26, 2019 11:53 AM EDT
Local time Sunday, May 26, 2019 12:07 PM EDT
Flight conditions Marginal Visual Meteorological Conditions
Winds
Wind direction East (90°)
Wind speed 17 mph
Visibility 10 mi.
Sky condition
Ceiling 2,900 ft. broken clouds
Cloud layer broken clouds 2,900 ft.
Temperature 87°F
Dewpoint 68°F
Altimeter 30.12 in.Hg
Derived measurements
Relative humidity 53%
Heat index 91°F
Density altitude 1886 ft.
Sea-level pressure 30.12 in.Hg
Remarks
Automated weather observing station with precipitation discriminator.
METAR KMIA 261553Z 09015KT 10SM BKN029 31/20 A3012 RMK AO2 SLP201 T03060200

Settings

Location code

InnerDrive.Weather 4.0.6770.0 Release CLR 4.0.30319.42000
Copyright ©2018 Inner Drive Technology. All rights reserved. Portions Copyright ©1986-2018 David Braverman.

Find weather

Site navigation


Skip Navigation Links

Place info

Page info

PayPal - The safer, easier way to pay online!

Return home.

Copyright ©2019 Inner Drive Technology. Purveyors of fine, hand-crafted computer software. Page printed 2019-05-26T16:07:26 UTC.